Rhodes, Iowa
Current Conditions -  °F | °C
As of 9:53 AM on Monday 26 Jan 2015 (Local Time) from KMIW Reporting Station
Few Clouds Few Clouds  
Wind Chill: 24°   Ceiling: Unl
Heat Index: 33°   Visibility: 10mi
Dew Point: 30°   Wind: 13mph
Humidity: 89%   Direction: 220°SW
Pressure: 29.79"   Gusts: NA
Location:  41.93°N, 93.19°W
Report Text: KMIW 261553Z AUTO 22011KT 10SM FEW060 01/M01 A2979 RMK AO2 SLP096 T00061011
Loading
Personal Weather Stations






























Interactive Weather Map New forecast layout! Learn more

10-Day Weather Forecast

Advertisements
Track Severe Weather on mobile